createdAt,value
2022-11-26T00:04:20.832Z,99564.70
2022-11-26T00:09:25.289Z,99566.67
2022-11-26T00:14:28.446Z,99568.12
2022-11-26T00:19:32.458Z,99567.38
2022-11-26T00:24:36.507Z,99570.77
2022-11-26T00:29:42.012Z,99576.43
2022-11-26T00:34:45.909Z,99580.91
2022-11-26T00:39:50.101Z,99585.38
2022-11-26T00:44:53.611Z,99583.33
2022-11-26T00:49:57.391Z,99588.09
2022-11-26T00:55:16.261Z,99591.38
2022-11-26T01:00:24.134Z,99590.13
2022-11-26T01:05:33.852Z,99596.44
2022-11-26T01:10:37.546Z,99597.38
2022-11-26T01:15:41.677Z,99596.19
2022-11-26T01:20:45.423Z,99603.04
2022-11-26T01:25:49.877Z,99598.60
2022-11-26T01:30:53.389Z,99602.61
2022-11-26T01:35:57.042Z,99605.98
2022-11-26T01:41:16.756Z,99609.27
2022-11-26T01:46:22.842Z,99615.44
2022-11-26T01:51:28.525Z,99615.33
2022-11-26T01:56:41.367Z,99620.05
2022-11-26T02:01:45.372Z,99621.39
2022-11-26T02:06:53.392Z,99626.33
2022-11-26T02:11:57.681Z,99621.05
2022-11-26T02:17:10.770Z,99618.58
2022-11-26T02:22:36.338Z,99615.65
2022-11-26T02:27:52.642Z,99619.66
2022-11-26T02:33:12.154Z,99618.59
2022-11-26T02:38:33.567Z,99621.23
2022-11-26T02:43:38.673Z,99621.56
2022-11-26T02:48:47.440Z,99626.63
2022-11-26T02:53:52.857Z,99631.58
2022-11-26T02:58:57.436Z,99625.08
2022-11-26T03:04:07.837Z,99628.95
2022-11-26T03:09:11.312Z,99628.01
2022-11-26T03:14:15.326Z,99635.61
2022-11-26T03:19:18.829Z,99638.14
2022-11-26T03:24:22.385Z,99635.42
2022-11-26T03:29:26.059Z,99633.86
2022-11-26T03:34:29.805Z,99634.32
2022-11-26T03:39:33.112Z,99641.20
2022-11-26T03:44:37.268Z,99645.36
2022-11-26T03:49:41.168Z,99643.84
2022-11-26T03:54:44.786Z,99648.33
2022-11-26T04:05:08.282Z,99649.59
2022-11-26T04:10:17.056Z,99652.27
2022-11-26T04:15:23.322Z,99655.02
2022-11-26T04:20:26.761Z,99659.94
2022-11-26T04:25:30.065Z,99660.34
2022-11-26T04:30:34.643Z,99666.69
2022-11-26T04:35:38.290Z,99666.56
2022-11-26T04:40:46.235Z,99666.97
2022-11-26T04:45:49.846Z,99666.97
2022-11-26T04:50:53.685Z,99672.59
2022-11-26T04:55:57.918Z,99679.00
2022-11-26T05:01:03.747Z,99686.86
2022-11-26T05:06:11.932Z,99687.03
2022-11-26T05:11:15.514Z,99691.94
2022-11-26T05:16:19.091Z,99695.71
2022-11-26T05:21:22.831Z,99703.99
2022-11-26T05:26:26.646Z,99707.73
2022-11-26T05:31:31.305Z,99713.71
2022-11-26T05:36:35.001Z,99719.16
2022-11-26T05:41:38.608Z,99723.90
2022-11-26T05:46:43.737Z,99728.80
2022-11-26T05:51:47.118Z,99730.05
2022-11-26T05:56:54.274Z,99741.08
2022-11-26T06:02:02.218Z,99741.35
2022-11-26T06:07:05.617Z,99741.30
2022-11-26T06:12:09.135Z,99742.48
2022-11-26T06:17:12.855Z,99748.71
2022-11-26T06:22:16.533Z,99755.73
2022-11-26T06:27:43.336Z,99762.48
2022-11-26T06:32:49.945Z,99771.48
2022-11-26T06:37:53.413Z,99777.05
2022-11-26T06:42:57.518Z,99777.01
2022-11-26T06:48:01.369Z,99778.38
2022-11-26T06:53:08.273Z,99786.70
2022-11-26T06:58:11.775Z,99780.54
2022-11-26T07:03:18.609Z,99781.20
2022-11-26T07:08:25.709Z,99784.80
2022-11-26T07:13:29.231Z,99795.14
2022-11-26T07:18:32.831Z,99804.15
2022-11-26T07:23:36.994Z,99815.14
2022-11-26T07:28:45.452Z,99814.70
2022-11-26T07:33:59.042Z,99815.27
2022-11-26T07:39:03.626Z,99808.31
2022-11-26T07:44:07.118Z,99814.90
2022-11-26T07:49:10.709Z,99822.52
2022-11-26T07:54:17.094Z,99826.64
2022-11-26T07:59:24.462Z,99826.53
2022-11-26T08:04:37.563Z,99828.27
2022-11-26T08:09:41.154Z,99836.95
2022-11-26T08:14:44.966Z,99839.67
2022-11-26T08:19:50.834Z,99842.21
2022-11-26T08:24:54.436Z,99849.31
2022-11-26T08:30:07.982Z,99854.17
2022-11-26T08:35:13.439Z,99855.29
2022-11-26T08:40:17.431Z,99862.81
2022-11-26T08:45:24.845Z,99866.05
2022-11-26T08:50:28.407Z,99863.98
2022-11-26T08:55:58.769Z,99866.27
2022-11-26T09:00:56.036Z,99870.50
2022-11-26T09:06:03.629Z,99877.42
2022-11-26T09:11:06.855Z,99880.36
2022-11-26T09:16:09.994Z,99881.83
2022-11-26T09:21:13.733Z,99888.83
2022-11-26T09:26:18.434Z,99893.34
2022-11-26T09:31:22.136Z,99893.48
2022-11-26T09:36:29.032Z,99898.04
2022-11-26T09:41:44.729Z,99899.86
2022-11-26T09:47:15.602Z,99894.66
2022-11-26T09:52:22.737Z,99898.57
2022-11-26T09:57:49.240Z,99895.38
2022-11-26T10:02:54.063Z,99895.23
2022-11-26T10:08:23.264Z,99893.98
2022-11-26T10:13:38.223Z,99895.34
2022-11-26T10:18:54.872Z,99898.30
2022-11-26T10:24:04.855Z,99903.62
2022-11-26T10:29:33.530Z,99902.30
2022-11-26T10:34:48.422Z,99895.95
2022-11-26T10:40:24.171Z,99896.77
2022-11-26T10:45:41.200Z,99904.41
2022-11-26T10:50:56.079Z,99904.79
2022-11-26T10:56:01.572Z,99913.48
2022-11-26T11:01:06.416Z,99912.81
2022-11-26T11:06:12.500Z,99913.60
2022-11-26T11:11:22.418Z,99910.95
2022-11-26T11:16:27.947Z,99911.30
2022-11-26T11:21:34.958Z,99908.92
2022-11-26T11:26:44.805Z,99900.55
2022-11-26T11:31:48.370Z,99903.88
2022-11-26T11:37:07.879Z,99906.17
2022-11-26T11:42:29.479Z,99909.45
2022-11-26T11:47:45.072Z,99913.39
2022-11-26T11:52:48.020Z,99919.55
2022-11-26T11:58:09.517Z,99924.54
2022-11-26T12:03:14.949Z,99921.50
2022-11-26T12:08:33.157Z,99919.66
2022-11-26T12:13:49.065Z,99918.27
2022-11-26T12:18:56.401Z,99915.45
2022-11-26T12:24:05.084Z,99919.72
2022-11-26T12:29:26.935Z,99919.45
2022-11-26T12:34:32.885Z,99919.25
2022-11-26T12:39:35.888Z,99919.63
2022-11-26T12:44:44.907Z,99922.01
2022-11-26T12:50:15.847Z,99925.90
2022-11-26T12:55:52.807Z,99927.55
2022-11-26T13:00:57.062Z,99923.97
2022-11-26T13:06:35.265Z,99923.22
2022-11-26T13:11:56.022Z,99928.95
2022-11-26T13:17:08.258Z,99929.05
2022-11-26T13:22:23.039Z,99936.95
2022-11-26T13:27:57.986Z,99940.05
2022-11-26T13:33:47.221Z,99944.15
2022-11-26T13:39:15.496Z,99943.20
2022-11-26T13:44:43.528Z,99941.00
2022-11-26T13:49:55.511Z,99940.90
2022-11-26T13:55:19.648Z,99941.38
2022-11-26T14:00:31.708Z,99937.99
2022-11-26T14:05:49.787Z,99937.32
2022-11-26T14:10:52.864Z,99940.89
2022-11-26T14:15:57.586Z,99941.54
2022-11-26T14:21:00.797Z,99947.86
2022-11-26T14:26:04.179Z,99953.04
2022-11-26T14:31:28.232Z,99950.27
2022-11-26T14:36:31.749Z,99950.56
2022-11-26T14:41:59.103Z,99954.95
2022-11-26T14:47:27.621Z,99958.85
2022-11-26T14:52:39.250Z,99965.28
2022-11-26T14:57:46.645Z,99967.87
2022-11-26T15:02:50.338Z,99968.62
2022-11-26T15:07:58.139Z,99974.91
2022-11-26T15:13:10.234Z,99979.08
2022-11-26T15:18:16.078Z,99984.08
2022-11-26T15:23:22.088Z,99985.73
2022-11-26T15:28:26.485Z,99987.30
2022-11-26T15:33:32.048Z,99991.02
2022-11-26T15:38:37.562Z,99990.27
2022-11-26T15:43:44.876Z,99996.21
2022-11-26T15:48:55.911Z,100000.44
2022-11-26T15:53:59.319Z,99999.20
2022-11-26T15:59:07.443Z,100000.32
2022-11-26T16:04:33.048Z,100005.55
2022-11-26T16:09:36.066Z,100008.00
2022-11-26T16:14:40.054Z,100013.54
2022-11-26T16:19:53.256Z,100019.98
2022-11-26T16:25:05.864Z,100023.28
2022-11-26T16:30:15.893Z,100029.42
2022-11-26T16:35:44.321Z,100032.13
2022-11-26T16:40:42.548Z,100039.54
2022-11-26T16:45:46.907Z,100041.01
2022-11-26T16:50:50.404Z,100044.56
2022-11-26T16:55:54.061Z,100046.35
2022-11-26T17:00:57.819Z,100053.09
2022-11-26T17:06:06.939Z,100054.16
2022-11-26T17:11:13.975Z,100059.69
2022-11-26T17:16:19.888Z,100065.61
2022-11-26T17:21:23.941Z,100069.71
2022-11-26T17:26:27.237Z,100069.48
2022-11-26T17:31:30.945Z,100073.06
2022-11-26T17:36:37.022Z,100078.04
2022-11-26T17:41:40.718Z,100081.65
2022-11-26T17:47:09.079Z,100088.23
2022-11-26T17:52:07.771Z,100092.12
2022-11-26T17:57:16.071Z,100091.55
2022-11-26T18:02:19.493Z,100098.73
2022-11-26T18:07:23.210Z,100105.23
2022-11-26T18:12:28.104Z,100109.20
2022-11-26T18:17:31.607Z,100109.13
2022-11-26T18:22:35.097Z,100108.67
2022-11-26T18:27:38.257Z,100110.59
2022-11-26T18:32:41.641Z,100109.02
2022-11-26T18:37:44.844Z,100102.79
2022-11-26T18:42:53.006Z,100109.23
2022-11-26T18:47:56.462Z,100110.13
2022-11-26T18:52:59.796Z,100123.69
2022-11-26T18:58:07.821Z,100129.85
2022-11-26T19:03:13.351Z,100135.60
2022-11-26T19:08:16.699Z,100141.92
2022-11-26T19:13:20.077Z,100146.96
2022-11-26T19:18:26.289Z,100154.08
2022-11-26T19:23:29.876Z,100163.76
2022-11-26T19:28:33.891Z,100168.90
2022-11-26T19:33:38.003Z,100173.48
2022-11-26T19:38:41.348Z,100178.48
2022-11-26T19:43:44.685Z,100189.57
2022-11-26T19:48:49.781Z,100199.88
2022-11-26T19:53:55.064Z,100198.76
2022-11-26T19:59:00.792Z,100206.40
2022-11-26T20:04:08.670Z,100210.44
2022-11-26T20:09:15.805Z,100212.39
2022-11-26T20:14:22.719Z,100215.63
2022-11-26T20:19:30.621Z,100221.52
2022-11-26T20:24:36.421Z,100224.20
2022-11-26T20:29:39.642Z,100232.43
2022-11-26T20:34:45.115Z,100240.58
2022-11-26T20:40:01.659Z,100246.70
2022-11-26T20:45:45.898Z,100247.23
2022-11-26T21:03:04.780Z,100254.38
2022-11-26T21:08:11.333Z,100255.33
2022-11-26T21:13:16.921Z,100256.80
2022-11-26T21:18:20.713Z,100254.92
2022-11-26T21:23:24.219Z,100258.24
2022-11-26T21:28:27.587Z,100253.27
2022-11-26T21:33:30.960Z,100259.45
2022-11-26T21:38:34.560Z,100260.65
2022-11-26T21:43:38.793Z,100266.86
2022-11-26T21:48:42.233Z,100269.39
2022-11-26T21:53:46.807Z,100276.45
2022-11-26T21:58:54.143Z,100280.14
2022-11-26T22:04:04.564Z,100283.78
2022-11-26T22:09:08.259Z,100293.67
2022-11-26T22:14:15.045Z,100293.39
2022-11-26T22:19:18.295Z,100296.05
2022-11-26T22:24:21.572Z,100301.59
2022-11-26T22:29:25.081Z,100304.40
2022-11-26T22:34:29.400Z,100308.71
2022-11-26T22:39:32.836Z,100314.45
2022-11-26T22:44:36.660Z,100316.48
2022-11-26T22:49:40.734Z,100320.85
2022-11-26T22:54:44.495Z,100319.92
2022-11-26T22:59:48.011Z,100315.83
2022-11-26T23:04:52.898Z,100318.76
2022-11-26T23:09:58.942Z,100319.41
2022-11-26T23:15:03.293Z,100321.77
2022-11-26T23:20:08.015Z,100321.13
2022-11-26T23:25:12.031Z,100316.66
2022-11-26T23:30:16.173Z,100318.85
2022-11-26T23:35:20.344Z,100317.87
2022-11-26T23:40:24.013Z,100317.22
2022-11-26T23:45:28.904Z,100320.36
2022-11-26T23:50:35.108Z,100326.04
2022-11-26T23:55:38.362Z,100326.23
